createdAt,value
2023-03-24T00:02:06.139Z,23.73
2023-03-24T00:04:35.717Z,11.65
2023-03-24T00:07:05.674Z,18.70
2023-03-24T00:09:34.998Z,15.45
2023-03-24T00:12:04.025Z,21.73
2023-03-24T00:14:32.615Z,14.23
2023-03-24T00:17:00.650Z,12.57
2023-03-24T00:19:29.248Z,21.13
2023-03-24T00:21:57.852Z,22.08
2023-03-24T00:24:26.744Z,18.35
2023-03-24T00:26:59.072Z,18.17
2023-03-24T00:29:27.803Z,15.40
2023-03-24T00:31:56.680Z,15.63
2023-03-24T00:34:25.565Z,15.90
2023-03-24T00:36:54.538Z,18.05
2023-03-24T00:39:23.247Z,26.42
2023-03-24T00:41:51.889Z,24.58
2023-03-24T00:44:20.642Z,15.90
2023-03-24T00:46:59.474Z,18.83
2023-03-24T00:49:46.317Z,20.10
2023-03-24T00:52:23.114Z,14.70
2023-03-24T00:54:53.612Z,19.08
2023-03-24T00:57:25.122Z,23.98
2023-03-24T00:59:56.009Z,21.05
2023-03-24T01:02:26.477Z,16.23
2023-03-24T01:04:57.837Z,16.95
2023-03-24T01:07:29.642Z,15.80
2023-03-24T01:10:01.624Z,13.38
2023-03-24T01:12:36.607Z,23.58
2023-03-24T01:15:09.468Z,15.18
2023-03-24T01:17:37.540Z,18.75
2023-03-24T01:20:08.914Z,14.73
2023-03-24T01:22:39.031Z,17.63
2023-03-24T01:25:10.827Z,15.00
2023-03-24T01:27:39.595Z,13.35
2023-03-24T01:30:10.534Z,16.08
2023-03-24T01:32:39.292Z,14.35
2023-03-24T01:35:08.353Z,18.90
2023-03-24T01:37:37.145Z,15.32
2023-03-24T01:40:15.952Z,12.90
2023-03-24T01:42:44.635Z,17.92
2023-03-24T01:45:41.629Z,13.73
2023-03-24T01:48:16.906Z,15.05
2023-03-24T01:50:48.168Z,12.82
2023-03-24T01:53:16.972Z,12.63
2023-03-24T01:55:48.115Z,16.80
2023-03-24T01:58:17.921Z,12.30
2023-03-24T02:00:47.688Z,16.38
2023-03-24T02:03:19.771Z,15.05
2023-03-24T02:05:49.961Z,18.20
2023-03-24T02:08:44.345Z,13.10
2023-03-24T02:11:14.476Z,13.40
2023-03-24T02:13:43.185Z,14.20
2023-03-24T02:16:23.809Z,15.32
2023-03-24T02:18:56.134Z,19.05
2023-03-24T02:22:15.670Z,19.13
2023-03-24T02:25:21.111Z,15.90
2023-03-24T02:28:27.159Z,18.45
2023-03-24T02:31:02.445Z,18.60
2023-03-24T02:34:01.510Z,17.00
2023-03-24T02:37:03.734Z,14.77
2023-03-24T02:39:43.112Z,27.63
2023-03-24T02:42:32.549Z,22.38
2023-03-24T02:45:23.513Z,24.02
2023-03-24T02:48:13.700Z,22.40
2023-03-24T02:50:52.962Z,23.67
2023-03-24T02:53:27.322Z,22.63
2023-03-24T02:56:02.594Z,25.63
2023-03-24T02:58:40.652Z,21.30
2023-03-24T03:01:16.346Z,16.80
2023-03-24T03:03:49.903Z,15.40
2023-03-24T03:08:59.720Z,16.67
2023-03-24T03:11:28.622Z,17.30
2023-03-24T03:14:05.924Z,20.90
2023-03-24T03:16:35.988Z,19.98
2023-03-24T03:19:25.551Z,15.95
2023-03-24T03:21:55.287Z,17.70
2023-03-24T03:24:37.195Z,24.27
2023-03-24T03:27:10.441Z,16.20
2023-03-24T03:29:41.282Z,18.10
2023-03-24T03:32:12.804Z,20.00
2023-03-24T03:34:48.779Z,20.88
2023-03-24T03:37:37.540Z,17.05
2023-03-24T03:40:13.847Z,21.10
2023-03-24T03:42:42.978Z,18.67
2023-03-24T03:45:12.433Z,24.80
2023-03-24T03:47:42.059Z,18.92
2023-03-24T03:50:11.519Z,19.00
2023-03-24T03:52:42.934Z,19.85
2023-03-24T03:55:12.558Z,25.23
2023-03-24T03:57:41.196Z,18.60
2023-03-24T04:00:17.005Z,19.38
2023-03-24T04:03:02.571Z,20.65
2023-03-24T04:06:05.569Z,16.95
2023-03-24T04:08:55.093Z,14.07
2023-03-24T04:11:54.613Z,18.02
2023-03-24T04:14:47.567Z,17.70
2023-03-24T04:17:43.125Z,21.23
2023-03-24T04:20:33.408Z,18.08
2023-03-24T04:23:15.134Z,26.67
2023-03-24T04:26:16.610Z,18.55
2023-03-24T04:28:54.055Z,16.25
2023-03-24T04:31:38.618Z,21.73
2023-03-24T04:34:13.960Z,17.92
2023-03-24T04:36:46.647Z,22.35
2023-03-24T04:39:21.328Z,16.05
2023-03-24T04:41:50.617Z,15.35
2023-03-24T04:44:23.011Z,15.75
2023-03-24T04:46:53.041Z,10.55
2023-03-24T04:49:21.629Z,12.10
2023-03-24T04:51:50.325Z,10.00
2023-03-24T04:54:19.464Z,7.25
2023-03-24T04:56:55.619Z,8.00
2023-03-24T04:59:24.364Z,5.63
2023-03-24T05:01:53.150Z,8.73
2023-03-24T05:04:23.475Z,7.03
2023-03-24T05:06:52.183Z,9.70
2023-03-24T05:09:25.258Z,8.27
2023-03-24T05:11:54.188Z,11.05
2023-03-24T05:14:22.918Z,10.70
2023-03-24T05:16:51.580Z,5.47
2023-03-24T05:19:20.258Z,9.20
2023-03-24T05:21:49.245Z,7.65
2023-03-24T05:24:17.928Z,8.65
2023-03-24T05:26:46.664Z,4.30
2023-03-24T05:29:15.333Z,7.85
2023-03-24T05:31:44.029Z,5.03
2023-03-24T05:34:12.881Z,6.50
2023-03-24T05:36:41.552Z,8.38
2023-03-24T05:39:10.272Z,5.40
2023-03-24T05:41:38.849Z,5.13
2023-03-24T05:44:07.645Z,4.55
2023-03-24T05:46:36.493Z,11.68
2023-03-24T05:49:05.217Z,4.47
2023-03-24T05:51:33.898Z,4.35
2023-03-24T05:54:02.580Z,3.88
2023-03-24T05:56:32.774Z,6.15
2023-03-24T05:59:01.418Z,3.67
2023-03-24T06:01:30.441Z,3.38
2023-03-24T06:03:59.175Z,3.70
2023-03-24T06:06:30.030Z,2.97
2023-03-24T06:08:59.854Z,6.18
2023-03-24T06:11:28.539Z,6.05
2023-03-24T06:14:01.853Z,6.07
2023-03-24T06:16:31.057Z,4.68
2023-03-24T06:18:59.689Z,4.07
2023-03-24T06:21:34.562Z,2.60
2023-03-24T06:24:05.073Z,2.25
2023-03-24T06:26:33.818Z,2.80
2023-03-24T06:29:03.448Z,3.13
2023-03-24T06:31:34.044Z,2.33
2023-03-24T06:34:02.682Z,7.43
2023-03-24T06:36:31.331Z,2.03
2023-03-24T06:39:00.118Z,4.15
2023-03-24T06:41:28.730Z,3.53
2023-03-24T06:43:57.475Z,2.47
2023-03-24T06:46:29.282Z,3.30
2023-03-24T06:48:58.438Z,1.77
2023-03-24T06:51:27.078Z,2.00
2023-03-24T06:53:55.773Z,2.92
2023-03-24T06:56:24.484Z,1.80
2023-03-24T06:58:53.105Z,4.65
2023-03-24T07:01:22.021Z,2.30
2023-03-24T07:03:50.857Z,5.40
2023-03-24T07:06:20.046Z,4.30
2023-03-24T07:08:48.656Z,1.95
2023-03-24T07:11:17.827Z,3.15
2023-03-24T07:13:46.504Z,3.00
2023-03-24T07:16:15.175Z,2.03
2023-03-24T07:18:43.925Z,2.15
2023-03-24T07:21:12.920Z,3.35
2023-03-24T07:23:41.963Z,2.67
2023-03-24T07:26:10.579Z,1.63
2023-03-24T07:28:39.215Z,2.80
2023-03-24T07:31:13.983Z,2.35
2023-03-24T07:33:42.859Z,3.45
2023-03-24T07:36:11.729Z,2.45
2023-03-24T07:38:40.372Z,2.25
2023-03-24T07:41:09.087Z,4.10
2023-03-24T07:43:37.718Z,3.92
2023-03-24T07:46:07.762Z,2.35
2023-03-24T07:48:37.916Z,5.43
2023-03-24T07:51:07.190Z,6.75
2023-03-24T07:53:35.859Z,2.78
2023-03-24T07:56:04.732Z,3.10
2023-03-24T07:58:33.364Z,3.80
2023-03-24T08:01:01.956Z,3.72
2023-03-24T08:03:30.753Z,2.70
2023-03-24T08:05:59.532Z,5.28
2023-03-24T08:08:28.702Z,4.56
2023-03-24T08:10:57.354Z,3.50
2023-03-24T08:13:26.242Z,3.85
2023-03-24T08:15:54.958Z,4.40
2023-03-24T08:18:25.926Z,2.55
2023-03-24T08:20:58.763Z,3.88
2023-03-24T08:23:27.686Z,3.00
2023-03-24T08:25:56.399Z,3.40
2023-03-24T08:28:25.264Z,2.70
2023-03-24T08:30:54.075Z,4.10
2023-03-24T08:33:22.789Z,4.55
2023-03-24T08:35:52.829Z,3.08
2023-03-24T08:38:24.550Z,3.08
2023-03-24T08:40:53.805Z,2.75
2023-03-24T08:43:24.458Z,2.60
2023-03-24T08:45:53.282Z,3.03
2023-03-24T08:48:23.000Z,3.63
2023-03-24T08:50:51.842Z,5.88
2023-03-24T08:53:20.557Z,4.50
2023-03-24T08:55:49.565Z,2.85
2023-03-24T08:58:22.732Z,3.08
2023-03-24T09:00:51.350Z,4.57
2023-03-24T09:03:23.575Z,2.40
2023-03-24T09:05:51.613Z,3.22
2023-03-24T09:08:21.070Z,3.70
2023-03-24T09:10:50.385Z,7.82
2023-03-24T09:13:20.676Z,4.30
2023-03-24T09:15:51.531Z,4.72
2023-03-24T09:18:22.051Z,4.18
2023-03-24T09:20:51.583Z,3.33
2023-03-24T09:23:21.255Z,3.05
2023-03-24T09:25:55.779Z,5.03
2023-03-24T09:28:24.233Z,4.03
2023-03-24T09:30:57.766Z,3.90
2023-03-24T09:36:00.431Z,5.70
2023-03-24T09:38:30.196Z,3.13
2023-03-24T09:41:03.950Z,2.38
2023-03-24T09:43:53.845Z,7.60
2023-03-24T09:46:47.650Z,4.97
2023-03-24T09:49:24.822Z,3.28
2023-03-24T09:51:57.804Z,5.57
2023-03-24T09:54:52.810Z,4.15
2023-03-24T09:57:22.708Z,4.70
2023-03-24T09:59:51.322Z,2.92
2023-03-24T10:02:23.174Z,3.65
2023-03-24T10:04:52.072Z,4.38
2023-03-24T10:07:47.771Z,3.65
2023-03-24T10:10:28.808Z,2.72
2023-03-24T10:13:05.036Z,3.08
2023-03-24T10:15:40.504Z,4.03
2023-03-24T10:18:25.768Z,5.88
2023-03-24T10:21:08.840Z,4.95
2023-03-24T10:24:02.129Z,8.80
2023-03-24T10:26:40.715Z,4.90
2023-03-24T10:29:29.199Z,6.85
2023-03-24T10:32:27.122Z,4.07
2023-03-24T10:35:08.882Z,4.72
2023-03-24T10:37:38.741Z,6.90
2023-03-24T10:40:23.646Z,7.90
2023-03-24T10:43:07.143Z,4.82
2023-03-24T10:45:41.061Z,6.18
2023-03-24T10:48:10.745Z,6.15
2023-03-24T10:50:44.378Z,4.50
2023-03-24T10:55:51.978Z,8.15
2023-03-24T10:58:41.690Z,5.03
2023-03-24T11:01:27.649Z,5.55
2023-03-24T11:04:06.474Z,7.90
2023-03-24T11:06:35.689Z,5.70
2023-03-24T11:09:13.125Z,7.13
2023-03-24T11:11:41.730Z,4.60
2023-03-24T11:14:27.288Z,6.85
2023-03-24T11:17:05.493Z,6.10
2023-03-24T11:19:38.239Z,4.20
2023-03-24T11:22:08.714Z,7.90
2023-03-24T11:24:39.887Z,5.53
2023-03-24T11:27:09.001Z,7.00
2023-03-24T11:29:41.910Z,6.25
2023-03-24T11:32:26.273Z,7.10
2023-03-24T11:35:07.351Z,6.30
2023-03-24T11:37:37.890Z,8.50
2023-03-24T11:40:27.464Z,12.30
2023-03-24T11:42:59.141Z,7.25
2023-03-24T11:45:43.292Z,8.18
2023-03-24T11:48:43.178Z,5.07
2023-03-24T11:51:14.017Z,5.85
2023-03-24T11:53:53.400Z,6.55
2023-03-24T11:56:31.704Z,6.25
2023-03-24T11:59:29.044Z,7.03
2023-03-24T12:02:20.986Z,7.43
2023-03-24T12:04:58.515Z,4.65
2023-03-24T12:07:49.126Z,5.20
2023-03-24T12:10:36.490Z,5.60
2023-03-24T12:13:31.769Z,6.22
2023-03-24T12:16:04.588Z,7.05
2023-03-24T12:18:45.063Z,6.65
2023-03-24T12:21:16.487Z,5.82
2023-03-24T12:24:01.114Z,6.53
2023-03-24T12:26:34.096Z,8.63
2023-03-24T12:29:30.334Z,7.03
2023-03-24T12:32:13.954Z,5.78
2023-03-24T12:34:48.689Z,6.78
2023-03-24T12:37:34.904Z,5.78
2023-03-24T12:40:25.120Z,8.05
2023-03-24T12:43:21.596Z,4.70
2023-03-24T12:45:56.151Z,5.32
2023-03-24T12:48:43.343Z,4.55
2023-03-24T12:51:11.985Z,5.57
2023-03-24T12:53:47.074Z,6.45
2023-03-24T12:56:19.632Z,4.85
2023-03-24T12:59:19.596Z,4.78
2023-03-24T13:01:52.894Z,4.82
2023-03-24T13:04:37.105Z,5.28
2023-03-24T13:07:15.919Z,4.75
2023-03-24T13:09:50.377Z,7.20
2023-03-24T13:12:59.425Z,6.72
2023-03-24T13:15:34.958Z,8.85
2023-03-24T13:18:12.660Z,10.77
2023-03-24T13:20:53.545Z,7.65
2023-03-24T13:23:57.879Z,6.88
2023-03-24T13:26:51.014Z,7.00
2023-03-24T13:29:48.689Z,4.80
2023-03-24T13:32:24.763Z,9.00
2023-03-24T13:35:32.335Z,5.22
2023-03-24T13:38:22.960Z,4.85
2023-03-24T13:40:54.922Z,5.32
2023-03-24T13:43:28.279Z,6.85
2023-03-24T13:46:15.636Z,9.57
2023-03-24T13:48:53.459Z,5.03
2023-03-24T13:51:29.882Z,8.15
2023-03-24T13:54:08.486Z,5.40
2023-03-24T13:56:39.683Z,6.28
2023-03-24T13:59:22.154Z,11.30
2023-03-24T14:02:30.848Z,5.95
2023-03-24T14:05:13.795Z,7.70
2023-03-24T14:07:42.445Z,6.97
2023-03-24T14:10:22.038Z,8.80
2023-03-24T14:13:05.617Z,5.75
2023-03-24T14:15:46.423Z,6.35
2023-03-24T14:18:27.540Z,5.85
2023-03-24T14:20:58.330Z,5.57
2023-03-24T14:23:48.402Z,5.72
2023-03-24T14:26:31.713Z,4.90
2023-03-24T14:29:00.461Z,7.03
2023-03-24T14:31:35.131Z,7.15
2023-03-24T14:34:26.627Z,6.25
2023-03-24T14:37:07.783Z,10.07
2023-03-24T14:39:45.683Z,5.05
2023-03-24T14:42:30.838Z,5.88
2023-03-24T14:45:06.981Z,4.28
2023-03-24T14:47:37.520Z,8.73
2023-03-24T14:50:20.086Z,4.28
2023-03-24T14:52:57.329Z,4.07
2023-03-24T14:55:26.767Z,8.07
2023-03-24T14:57:58.379Z,5.30
2023-03-24T15:01:04.271Z,6.28
2023-03-24T15:03:55.826Z,6.57
2023-03-24T15:06:25.268Z,6.85
2023-03-24T15:09:00.010Z,4.47
2023-03-24T15:11:34.249Z,4.75
2023-03-24T15:14:05.638Z,11.50
2023-03-24T15:16:36.365Z,6.93
2023-03-24T15:19:24.791Z,10.95
2023-03-24T15:22:03.240Z,6.25
2023-03-24T15:24:37.540Z,4.78
2023-03-24T15:27:15.413Z,4.70
2023-03-24T15:29:45.604Z,10.70
2023-03-24T15:32:22.530Z,6.70
2023-03-24T15:34:57.097Z,5.88
2023-03-24T15:37:40.521Z,5.30
2023-03-24T15:40:32.388Z,7.07
2023-03-24T15:43:03.654Z,5.90
2023-03-24T15:45:43.254Z,6.65
2023-03-24T15:48:23.749Z,4.72
2023-03-24T15:51:07.161Z,8.95
2023-03-24T15:53:43.327Z,5.50
2023-03-24T15:56:18.993Z,7.78
2023-03-24T15:59:14.644Z,4.65
2023-03-24T16:01:45.310Z,11.63
2023-03-24T16:04:18.219Z,13.18
2023-03-24T16:06:55.293Z,5.97
2023-03-24T16:09:28.362Z,7.50
2023-03-24T16:11:57.130Z,14.77
2023-03-24T16:14:27.183Z,6.55
2023-03-24T16:17:01.380Z,5.25
2023-03-24T16:19:30.019Z,5.97
2023-03-24T16:21:59.217Z,4.68
2023-03-24T16:24:27.948Z,9.50
2023-03-24T16:26:57.039Z,5.45
2023-03-24T16:29:26.033Z,7.65
2023-03-24T16:31:57.891Z,4.82
2023-03-24T16:34:26.472Z,5.22
2023-03-24T16:36:56.108Z,3.92
2023-03-24T16:39:29.566Z,10.82
2023-03-24T16:41:58.449Z,4.97
2023-03-24T16:44:27.277Z,5.40
2023-03-24T16:46:56.612Z,4.50
2023-03-24T16:49:25.894Z,7.15
2023-03-24T16:51:55.089Z,13.57
2023-03-24T16:54:23.749Z,4.03
2023-03-24T16:56:52.441Z,4.90
2023-03-24T16:59:21.951Z,7.82
2023-03-24T17:01:54.308Z,4.50
2023-03-24T17:04:26.068Z,9.80
2023-03-24T17:06:55.772Z,4.45
2023-03-24T17:09:25.346Z,4.38
2023-03-24T17:11:59.788Z,5.18
2023-03-24T17:14:28.445Z,6.43
2023-03-24T17:16:57.100Z,8.70
2023-03-24T17:19:29.172Z,8.13
2023-03-24T17:22:05.495Z,6.45
2023-03-24T17:24:39.553Z,8.98
2023-03-24T17:27:18.094Z,5.72
2023-03-24T17:29:47.741Z,6.10
2023-03-24T17:32:16.408Z,6.65
2023-03-24T17:34:46.684Z,5.63
2023-03-24T17:37:15.046Z,4.10
2023-03-24T17:39:43.736Z,10.63
2023-03-24T17:42:12.502Z,7.47
2023-03-24T17:44:41.233Z,6.15
2023-03-24T17:47:09.921Z,9.30
2023-03-24T17:49:38.824Z,5.30
2023-03-24T17:52:07.497Z,6.35
2023-03-24T17:54:36.101Z,8.52
2023-03-24T17:57:05.064Z,10.35
2023-03-24T17:59:34.218Z,8.23
2023-03-24T18:02:02.838Z,6.72
2023-03-24T18:04:31.811Z,6.47
2023-03-24T18:07:01.542Z,4.47
2023-03-24T18:09:30.324Z,5.32
2023-03-24T18:11:59.905Z,4.60
2023-03-24T18:14:28.576Z,9.88
2023-03-24T18:16:57.316Z,5.88
2023-03-24T18:19:26.260Z,5.35
2023-03-24T18:21:54.929Z,7.07
2023-03-24T18:24:23.658Z,6.50
2023-03-24T18:26:52.652Z,8.30
2023-03-24T18:29:23.641Z,5.40
2023-03-24T18:31:52.528Z,5.65
2023-03-24T18:34:21.515Z,4.10
2023-03-24T18:36:51.476Z,6.03
2023-03-24T18:39:20.180Z,4.57
2023-03-24T18:41:49.358Z,7.35
2023-03-24T18:44:18.412Z,5.57
2023-03-24T18:46:47.080Z,4.88
2023-03-24T18:49:16.322Z,7.75
2023-03-24T18:51:46.602Z,6.88
2023-03-24T18:54:15.232Z,8.60
2023-03-24T18:56:43.969Z,7.38
2023-03-24T18:59:13.118Z,7.60
2023-03-24T19:01:42.105Z,5.30
2023-03-24T19:04:10.842Z,10.68
2023-03-24T19:06:43.499Z,6.20
2023-03-24T19:09:14.031Z,7.72
2023-03-24T19:11:43.613Z,12.50
2023-03-24T19:14:12.388Z,4.95
2023-03-24T19:16:41.139Z,5.38
2023-03-24T19:19:11.077Z,5.05
2023-03-24T19:21:41.705Z,7.20
2023-03-24T19:24:10.454Z,5.85
2023-03-24T19:26:39.113Z,12.38
2023-03-24T19:29:07.769Z,8.02
2023-03-24T19:31:36.482Z,6.72
2023-03-24T19:34:05.158Z,5.50
2023-03-24T19:36:35.592Z,6.38
2023-03-24T19:39:04.667Z,6.57
2023-03-24T19:41:33.358Z,8.93
2023-03-24T19:44:02.013Z,6.72
2023-03-24T19:46:30.711Z,9.63
2023-03-24T19:48:59.383Z,8.40
2023-03-24T19:51:27.490Z,7.22
2023-03-24T19:53:56.332Z,5.68
2023-03-24T19:56:25.019Z,5.95
2023-03-24T19:58:53.871Z,7.55
2023-03-24T20:01:24.977Z,8.75
2023-03-24T20:03:53.751Z,6.38
2023-03-24T20:06:22.672Z,9.18
2023-03-24T20:08:51.783Z,7.45
2023-03-24T20:11:20.937Z,9.93
2023-03-24T20:13:49.637Z,5.75
2023-03-24T20:16:18.473Z,6.97
2023-03-24T20:18:47.278Z,6.82
2023-03-24T20:21:19.695Z,5.78
2023-03-24T20:23:48.511Z,5.97
2023-03-24T20:26:17.318Z,6.90
2023-03-24T20:28:46.508Z,5.78
2023-03-24T20:31:15.428Z,10.35
2023-03-24T20:33:44.171Z,8.55
2023-03-24T20:36:12.997Z,7.80
2023-03-24T20:38:42.245Z,8.07
2023-03-24T20:41:11.378Z,5.07
2023-03-24T20:43:40.189Z,6.90
2023-03-24T20:46:11.085Z,7.63
2023-03-24T20:48:40.040Z,11.02
2023-03-24T20:51:08.708Z,5.57
2023-03-24T20:53:37.801Z,9.02
2023-03-24T20:56:09.226Z,6.85
2023-03-24T20:58:42.697Z,7.65
2023-03-24T21:01:21.615Z,11.90
2023-03-24T21:03:51.816Z,6.80
2023-03-24T21:06:21.930Z,8.77
2023-03-24T21:08:50.884Z,9.05
2023-03-24T21:11:19.733Z,14.27
2023-03-24T21:13:48.666Z,7.03
2023-03-24T21:16:20.799Z,14.25
2023-03-24T21:18:50.057Z,7.90
2023-03-24T21:21:18.807Z,8.10
2023-03-24T21:23:47.352Z,8.98
2023-03-24T21:26:18.528Z,8.40
2023-03-24T21:28:48.052Z,10.20
2023-03-24T21:31:23.227Z,11.57
2023-03-24T21:33:52.393Z,10.25
2023-03-24T21:36:22.142Z,8.27
2023-03-24T21:38:53.121Z,15.80
2023-03-24T21:41:22.957Z,8.30
2023-03-24T21:43:55.496Z,6.57
2023-03-24T21:46:27.626Z,7.88
2023-03-24T21:49:00.504Z,8.02
2023-03-24T21:51:37.901Z,8.17
2023-03-24T21:54:11.070Z,12.80
2023-03-24T21:56:39.802Z,10.23
2023-03-24T21:59:08.531Z,6.53
2023-03-24T22:01:38.700Z,11.05
2023-03-24T22:04:09.940Z,10.02
2023-03-24T22:06:40.002Z,11.07
2023-03-24T22:09:11.430Z,12.40
2023-03-24T22:11:43.849Z,7.88
2023-03-24T22:14:13.908Z,11.45
2023-03-24T22:16:42.571Z,8.02
2023-03-24T22:19:11.334Z,10.68
2023-03-24T22:21:39.987Z,10.75
2023-03-24T22:24:08.916Z,8.48
2023-03-24T22:26:37.691Z,8.27
2023-03-24T22:29:06.349Z,8.10
2023-03-24T22:31:35.591Z,6.97
2023-03-24T22:34:04.359Z,8.65
2023-03-24T22:36:33.005Z,7.40
2023-03-24T22:39:01.681Z,8.00
2023-03-24T22:41:30.374Z,12.57
2023-03-24T22:43:59.054Z,8.55
2023-03-24T22:46:27.743Z,8.55
2023-03-24T22:48:56.670Z,14.25
2023-03-24T22:51:25.564Z,8.07
2023-03-24T22:53:53.556Z,7.95
2023-03-24T22:56:22.424Z,6.28
2023-03-24T22:58:51.882Z,9.38
2023-03-24T23:01:20.519Z,6.22
2023-03-24T23:03:49.229Z,9.95
2023-03-24T23:06:17.821Z,10.52
2023-03-24T23:08:46.833Z,10.82
2023-03-24T23:11:15.697Z,16.58
2023-03-24T23:13:44.367Z,8.40
2023-03-24T23:16:13.326Z,7.53
2023-03-24T23:18:41.997Z,11.55
2023-03-24T23:21:16.399Z,7.05
2023-03-24T23:23:45.738Z,7.80
2023-03-24T23:26:26.141Z,7.50
2023-03-24T23:28:55.401Z,7.78
2023-03-24T23:31:27.279Z,10.48
2023-03-24T23:33:58.045Z,9.60
2023-03-24T23:36:29.859Z,7.45
2023-03-24T23:38:58.660Z,7.80
2023-03-24T23:41:27.473Z,9.98
2023-03-24T23:43:56.402Z,7.75
2023-03-24T23:46:25.892Z,8.73
2023-03-24T23:48:55.098Z,11.52
2023-03-24T23:51:23.728Z,7.88
2023-03-24T23:53:52.728Z,9.07
2023-03-24T23:56:24.155Z,13.88
2023-03-24T23:58:53.595Z,7.03
